sensor_id;sensor_type;location;lat;lon;timestamp;temperature;humidity
7325;DHT22;3703;48.016;7.802;2022-10-31T00:01:24;13.30;99.90
7325;DHT22;3703;48.016;7.802;2022-10-31T00:04:12;13.20;99.90
7325;DHT22;3703;48.016;7.802;2022-10-31T00:07:01;13.10;99.90
7325;DHT22;3703;48.016;7.802;2022-10-31T00:09:49;13.10;99.90
7325;DHT22;3703;48.016;7.802;2022-10-31T00:12:36;13.00;99.90
7325;DHT22;3703;48.016;7.802;2022-10-31T00:15:24;13.00;99.90
7325;DHT22;3703;48.016;7.802;2022-10-31T00:18:11;13.00;99.90
7325;DHT22;3703;48.016;7.802;2022-10-31T00:21:00;12.80;99.90
7325;DHT22;3703;48.016;7.802;2022-10-31T00:23:49;12.90;99.90
7325;DHT22;3703;48.016;7.802;2022-10-31T00:26:37;12.90;99.90
7325;DHT22;3703;48.016;7.802;2022-10-31T00:29:24;13.10;99.90
7325;DHT22;3703;48.016;7.802;2022-10-31T00:32:12;12.90;99.90
7325;DHT22;3703;48.016;7.802;2022-10-31T00:34:59;13.00;99.90
7325;DHT22;3703;48.016;7.802;2022-10-31T00:37:47;13.00;99.90
7325;DHT22;3703;48.016;7.802;2022-10-31T00:40:36;13.00;99.90
7325;DHT22;3703;48.016;7.802;2022-10-31T00:43:23;12.80;99.90
7325;DHT22;3703;48.016;7.802;2022-10-31T00:46:12;12.80;99.90
7325;DHT22;3703;48.016;7.802;2022-10-31T00:49:00;12.70;99.90
7325;DHT22;3703;48.016;7.802;2022-10-31T00:51:48;12.70;99.90
7325;DHT22;3703;48.016;7.802;2022-10-31T00:54:35;12.80;99.90
7325;DHT22;3703;48.016;7.802;2022-10-31T00:57:24;12.70;99.90
7325;DHT22;3703;48.016;7.802;2022-10-31T01:00:12;12.80;99.90
7325;DHT22;3703;48.016;7.802;2022-10-31T01:03:00;12.80;99.90
7325;DHT22;3703;48.016;7.802;2022-10-31T01:05:56;12.70;99.90
7325;DHT22;3703;48.016;7.802;2022-10-31T01:08:47;12.70;99.90
7325;DHT22;3703;48.016;7.802;2022-10-31T01:11:34;12.80;99.90
7325;DHT22;3703;48.016;7.802;2022-10-31T01:14:23;12.80;99.90
7325;DHT22;3703;48.016;7.802;2022-10-31T01:17:11;12.90;99.90
7325;DHT22;3703;48.016;7.802;2022-10-31T01:19:59;12.90;99.90
7325;DHT22;3703;48.016;7.802;2022-10-31T01:22:47;12.80;99.90
7325;DHT22;3703;48.016;7.802;2022-10-31T01:25:34;12.80;99.90
7325;DHT22;3703;48.016;7.802;2022-10-31T01:28:22;12.70;99.90
7325;DHT22;3703;48.016;7.802;2022-10-31T01:31:11;12.60;99.90
7325;DHT22;3703;48.016;7.802;2022-10-31T01:33:59;12.40;99.90
7325;DHT22;3703;48.016;7.802;2022-10-31T01:36:46;12.40;99.90
7325;DHT22;3703;48.016;7.802;2022-10-31T01:39:37;12.40;99.90
7325;DHT22;3703;48.016;7.802;2022-10-31T01:42:24;12.40;99.90
7325;DHT22;3703;48.016;7.802;2022-10-31T01:45:14;12.40;99.90
7325;DHT22;3703;48.016;7.802;2022-10-31T01:48:03;12.40;99.90
7325;DHT22;3703;48.016;7.802;2022-10-31T01:50:53;12.40;99.90
7325;DHT22;3703;48.016;7.802;2022-10-31T01:53:42;12.40;99.90
7325;DHT22;3703;48.016;7.802;2022-10-31T01:56:33;12.40;99.90
7325;DHT22;3703;48.016;7.802;2022-10-31T01:59:24;12.30;99.90
7325;DHT22;3703;48.016;7.802;2022-10-31T02:02:15;12.40;99.90
7325;DHT22;3703;48.016;7.802;2022-10-31T02:05:07;12.30;99.90
7325;DHT22;3703;48.016;7.802;2022-10-31T02:07:59;12.40;99.90
7325;DHT22;3703;48.016;7.802;2022-10-31T02:10:50;12.40;99.90
7325;DHT22;3703;48.016;7.802;2022-10-31T02:13:37;12.40;99.90
7325;DHT22;3703;48.016;7.802;2022-10-31T02:16:25;12.20;99.90
7325;DHT22;3703;48.016;7.802;2022-10-31T02:19:20;12.30;99.90
7325;DHT22;3703;48.016;7.802;2022-10-31T02:22:16;12.40;99.90
7325;DHT22;3703;48.016;7.802;2022-10-31T02:25:19;12.50;99.90
7325;DHT22;3703;48.016;7.802;2022-10-31T02:28:30;12.40;99.90
7325;DHT22;3703;48.016;7.802;2022-10-31T02:31:33;12.30;99.90
7325;DHT22;3703;48.016;7.802;2022-10-31T02:34:33;12.20;99.90
7325;DHT22;3703;48.016;7.802;2022-10-31T02:37:27;12.20;99.90
7325;DHT22;3703;48.016;7.802;2022-10-31T02:40:22;12.10;99.90
7325;DHT22;3703;48.016;7.802;2022-10-31T02:43:15;12.30;99.90
7325;DHT22;3703;48.016;7.802;2022-10-31T02:46:11;12.20;99.90
7325;DHT22;3703;48.016;7.802;2022-10-31T02:49:08;12.10;99.90
7325;DHT22;3703;48.016;7.802;2022-10-31T02:52:00;12.20;99.90
7325;DHT22;3703;48.016;7.802;2022-10-31T02:54:49;12.10;99.90
7325;DHT22;3703;48.016;7.802;2022-10-31T02:57:38;12.20;99.90
7325;DHT22;3703;48.016;7.802;2022-10-31T03:00:27;12.10;99.90
7325;DHT22;3703;48.016;7.802;2022-10-31T03:03:20;12.20;99.90
7325;DHT22;3703;48.016;7.802;2022-10-31T03:06:17;12.20;99.90
7325;DHT22;3703;48.016;7.802;2022-10-31T03:09:12;12.20;99.90
7325;DHT22;3703;48.016;7.802;2022-10-31T03:12:09;12.00;99.90
7325;DHT22;3703;48.016;7.802;2022-10-31T03:15:06;12.00;99.90
7325;DHT22;3703;48.016;7.802;2022-10-31T03:18:02;12.00;99.90
7325;DHT22;3703;48.016;7.802;2022-10-31T03:20:55;11.90;99.90
7325;DHT22;3703;48.016;7.802;2022-10-31T03:23:49;12.00;99.90
7325;DHT22;3703;48.016;7.802;2022-10-31T03:26:41;12.10;99.90
7325;DHT22;3703;48.016;7.802;2022-10-31T03:29:33;12.00;99.90
7325;DHT22;3703;48.016;7.802;2022-10-31T03:32:24;11.80;99.90
7325;DHT22;3703;48.016;7.802;2022-10-31T03:35:16;11.90;99.90
7325;DHT22;3703;48.016;7.802;2022-10-31T03:38:05;12.00;99.90
7325;DHT22;3703;48.016;7.802;2022-10-31T03:40:56;11.90;99.90
7325;DHT22;3703;48.016;7.802;2022-10-31T03:43:51;11.90;99.90
7325;DHT22;3703;48.016;7.802;2022-10-31T03:46:40;12.00;99.90
7325;DHT22;3703;48.016;7.802;2022-10-31T03:49:28;12.00;99.90
7325;DHT22;3703;48.016;7.802;2022-10-31T03:52:22;12.00;99.90
7325;DHT22;3703;48.016;7.802;2022-10-31T03:55:17;12.00;99.90
7325;DHT22;3703;48.016;7.802;2022-10-31T03:58:09;11.80;99.90
7325;DHT22;3703;48.016;7.802;2022-10-31T04:01:00;11.90;99.90
7325;DHT22;3703;48.016;7.802;2022-10-31T04:03:49;11.80;99.90
7325;DHT22;3703;48.016;7.802;2022-10-31T04:06:38;11.80;99.90
7325;DHT22;3703;48.016;7.802;2022-10-31T04:09:28;11.90;99.90
7325;DHT22;3703;48.016;7.802;2022-10-31T04:12:19;11.70;99.90
7325;DHT22;3703;48.016;7.802;2022-10-31T04:15:10;11.70;99.90
7325;DHT22;3703;48.016;7.802;2022-10-31T04:17:59;11.50;99.90
7325;DHT22;3703;48.016;7.802;2022-10-31T04:20:47;11.60;99.90
7325;DHT22;3703;48.016;7.802;2022-10-31T04:23:36;11.70;99.90
7325;DHT22;3703;48.016;7.802;2022-10-31T04:26:24;11.70;99.90
7325;DHT22;3703;48.016;7.802;2022-10-31T04:29:12;11.70;99.90
7325;DHT22;3703;48.016;7.802;2022-10-31T04:32:01;11.60;99.90
7325;DHT22;3703;48.016;7.802;2022-10-31T04:34:49;11.60;99.90
7325;DHT22;3703;48.016;7.802;2022-10-31T04:37:36;11.70;99.90
7325;DHT22;3703;48.016;7.802;2022-10-31T04:40:24;11.70;99.90
7325;DHT22;3703;48.016;7.802;2022-10-31T04:43:12;11.80;99.90
7325;DHT22;3703;48.016;7.802;2022-10-31T04:45:59;11.70;99.90
7325;DHT22;3703;48.016;7.802;2022-10-31T04:48:49;11.60;99.90
7325;DHT22;3703;48.016;7.802;2022-10-31T04:51:36;11.60;99.90
7325;DHT22;3703;48.016;7.802;2022-10-31T04:54:24;11.50;99.90
7325;DHT22;3703;48.016;7.802;2022-10-31T04:57:13;11.50;99.90
7325;DHT22;3703;48.016;7.802;2022-10-31T05:00:00;11.50;99.90
7325;DHT22;3703;48.016;7.802;2022-10-31T05:02:49;11.50;99.90
7325;DHT22;3703;48.016;7.802;2022-10-31T05:05:39;11.50;99.90
7325;DHT22;3703;48.016;7.802;2022-10-31T05:08:27;11.40;99.90
7325;DHT22;3703;48.016;7.802;2022-10-31T05:11:14;11.50;99.90
7325;DHT22;3703;48.016;7.802;2022-10-31T05:14:02;11.40;99.90
7325;DHT22;3703;48.016;7.802;2022-10-31T05:16:49;11.40;99.90
7325;DHT22;3703;48.016;7.802;2022-10-31T05:19:37;11.60;99.90
7325;DHT22;3703;48.016;7.802;2022-10-31T05:22:26;11.50;99.90
7325;DHT22;3703;48.016;7.802;2022-10-31T05:25:14;11.50;99.90
7325;DHT22;3703;48.016;7.802;2022-10-31T05:28:02;11.50;99.90
7325;DHT22;3703;48.016;7.802;2022-10-31T05:30:49;11.50;99.90
7325;DHT22;3703;48.016;7.802;2022-10-31T05:33:37;11.50;99.90
7325;DHT22;3703;48.016;7.802;2022-10-31T05:36:25;11.40;99.90
7325;DHT22;3703;48.016;7.802;2022-10-31T05:39:14;11.40;99.90
7325;DHT22;3703;48.016;7.802;2022-10-31T05:42:01;11.40;99.90
7325;DHT22;3703;48.016;7.802;2022-10-31T05:44:49;11.40;99.90
7325;DHT22;3703;48.016;7.802;2022-10-31T05:47:37;11.50;99.90
7325;DHT22;3703;48.016;7.802;2022-10-31T05:50:25;11.50;99.90
7325;DHT22;3703;48.016;7.802;2022-10-31T05:53:14;11.50;99.90
7325;DHT22;3703;48.016;7.802;2022-10-31T05:56:03;11.30;99.90
7325;DHT22;3703;48.016;7.802;2022-10-31T05:58:51;11.30;99.90
7325;DHT22;3703;48.016;7.802;2022-10-31T06:01:39;11.30;99.90
7325;DHT22;3703;48.016;7.802;2022-10-31T06:04:26;11.30;99.90
7325;DHT22;3703;48.016;7.802;2022-10-31T06:07:14;11.30;99.90
7325;DHT22;3703;48.016;7.802;2022-10-31T06:10:03;11.40;99.90
7325;DHT22;3703;48.016;7.802;2022-10-31T06:12:54;11.40;99.90
7325;DHT22;3703;48.016;7.802;2022-10-31T06:15:41;11.50;99.90
7325;DHT22;3703;48.016;7.802;2022-10-31T06:18:29;11.50;99.90
7325;DHT22;3703;48.016;7.802;2022-10-31T06:21:17;11.40;99.90
7325;DHT22;3703;48.016;7.802;2022-10-31T06:24:05;11.60;99.90
7325;DHT22;3703;48.016;7.802;2022-10-31T06:26:52;11.70;99.90
7325;DHT22;3703;48.016;7.802;2022-10-31T06:29:41;11.80;99.90
7325;DHT22;3703;48.016;7.802;2022-10-31T06:32:29;11.80;99.90
7325;DHT22;3703;48.016;7.802;2022-10-31T06:35:17;11.70;99.90
7325;DHT22;3703;48.016;7.802;2022-10-31T06:38:04;11.80;99.90
7325;DHT22;3703;48.016;7.802;2022-10-31T06:40:52;11.80;99.90
7325;DHT22;3703;48.016;7.802;2022-10-31T06:43:40;11.90;99.90
7325;DHT22;3703;48.016;7.802;2022-10-31T06:46:29;11.80;99.90
7325;DHT22;3703;48.016;7.802;2022-10-31T06:49:18;11.80;99.90
7325;DHT22;3703;48.016;7.802;2022-10-31T06:52:05;11.90;99.90
7325;DHT22;3703;48.016;7.802;2022-10-31T06:54:53;12.00;99.90
7325;DHT22;3703;48.016;7.802;2022-10-31T06:57:40;12.10;99.90
7325;DHT22;3703;48.016;7.802;2022-10-31T07:00:29;12.10;99.90
7325;DHT22;3703;48.016;7.802;2022-10-31T07:03:19;12.20;99.90
7325;DHT22;3703;48.016;7.802;2022-10-31T07:06:07;12.30;99.90
7325;DHT22;3703;48.016;7.802;2022-10-31T07:08:54;12.40;99.90
7325;DHT22;3703;48.016;7.802;2022-10-31T07:11:42;12.40;99.90
7325;DHT22;3703;48.016;7.802;2022-10-31T07:14:29;12.40;99.90
7325;DHT22;3703;48.016;7.802;2022-10-31T07:17:17;12.60;99.90
7325;DHT22;3703;48.016;7.802;2022-10-31T07:20:07;12.70;99.90
7325;DHT22;3703;48.016;7.802;2022-10-31T07:22:56;12.80;99.90
7325;DHT22;3703;48.016;7.802;2022-10-31T07:25:44;12.90;99.90
7325;DHT22;3703;48.016;7.802;2022-10-31T07:28:31;12.90;99.90
7325;DHT22;3703;48.016;7.802;2022-10-31T07:31:19;13.00;99.90
7325;DHT22;3703;48.016;7.802;2022-10-31T07:34:07;13.00;99.90
7325;DHT22;3703;48.016;7.802;2022-10-31T07:36:56;13.10;99.90
7325;DHT22;3703;48.016;7.802;2022-10-31T07:39:44;13.10;99.90
7325;DHT22;3703;48.016;7.802;2022-10-31T07:42:34;13.10;99.90
7325;DHT22;3703;48.016;7.802;2022-10-31T07:45:23;13.30;99.90
7325;DHT22;3703;48.016;7.802;2022-10-31T07:48:11;13.60;99.90
7325;DHT22;3703;48.016;7.802;2022-10-31T07:50:58;13.70;99.90
7325;DHT22;3703;48.016;7.802;2022-10-31T07:53:47;13.90;99.90
7325;DHT22;3703;48.016;7.802;2022-10-31T07:56:35;14.10;99.90
7325;DHT22;3703;48.016;7.802;2022-10-31T07:59:23;14.20;99.90
7325;DHT22;3703;48.016;7.802;2022-10-31T08:02:11;14.40;99.90
7325;DHT22;3703;48.016;7.802;2022-10-31T08:04:59;14.60;99.90
7325;DHT22;3703;48.016;7.802;2022-10-31T08:07:47;14.60;99.90
7325;DHT22;3703;48.016;7.802;2022-10-31T08:10:36;14.80;99.90
7325;DHT22;3703;48.016;7.802;2022-10-31T08:13:24;15.10;99.90
7325;DHT22;3703;48.016;7.802;2022-10-31T08:16:12;15.30;99.90
7325;DHT22;3703;48.016;7.802;2022-10-31T08:19:00;15.50;99.90
7325;DHT22;3703;48.016;7.802;2022-10-31T08:21:50;15.60;99.90
7325;DHT22;3703;48.016;7.802;2022-10-31T08:24:38;15.60;99.90
7325;DHT22;3703;48.016;7.802;2022-10-31T08:27:27;15.60;99.90
7325;DHT22;3703;48.016;7.802;2022-10-31T08:30:15;15.60;99.90
7325;DHT22;3703;48.016;7.802;2022-10-31T08:33:04;15.60;99.90
7325;DHT22;3703;48.016;7.802;2022-10-31T08:35:53;15.70;99.90
7325;DHT22;3703;48.016;7.802;2022-10-31T08:38:41;15.80;99.90
7325;DHT22;3703;48.016;7.802;2022-10-31T08:41:29;15.80;99.90
7325;DHT22;3703;48.016;7.802;2022-10-31T08:44:18;15.80;99.90
7325;DHT22;3703;48.016;7.802;2022-10-31T08:47:06;15.90;99.90
7325;DHT22;3703;48.016;7.802;2022-10-31T08:49:53;16.20;99.90
7325;DHT22;3703;48.016;7.802;2022-10-31T08:52:41;16.30;99.90
7325;DHT22;3703;48.016;7.802;2022-10-31T08:55:29;16.40;99.90
7325;DHT22;3703;48.016;7.802;2022-10-31T08:58:18;16.60;99.90
7325;DHT22;3703;48.016;7.802;2022-10-31T09:01:08;16.80;99.90
7325;DHT22;3703;48.016;7.802;2022-10-31T09:03:55;16.90;99.90
7325;DHT22;3703;48.016;7.802;2022-10-31T09:06:43;17.10;99.90
7325;DHT22;3703;48.016;7.802;2022-10-31T09:09:30;17.10;99.90
7325;DHT22;3703;48.016;7.802;2022-10-31T09:12:18;17.10;99.90
7325;DHT22;3703;48.016;7.802;2022-10-31T09:15:07;17.20;99.90
7325;DHT22;3703;48.016;7.802;2022-10-31T09:17:56;17.40;99.90
7325;DHT22;3703;48.016;7.802;2022-10-31T09:20:45;17.50;99.90
7325;DHT22;3703;48.016;7.802;2022-10-31T09:23:33;17.70;99.90
7325;DHT22;3703;48.016;7.802;2022-10-31T09:26:21;17.90;99.90
7325;DHT22;3703;48.016;7.802;2022-10-31T09:29:08;18.00;99.90
7325;DHT22;3703;48.016;7.802;2022-10-31T09:31:56;18.10;99.90
7325;DHT22;3703;48.016;7.802;2022-10-31T09:34:45;18.00;99.90
7325;DHT22;3703;48.016;7.802;2022-10-31T09:37:33;18.00;99.90
7325;DHT22;3703;48.016;7.802;2022-10-31T09:40:20;18.00;99.90
7325;DHT22;3703;48.016;7.802;2022-10-31T09:43:15;17.90;99.90
7325;DHT22;3703;48.016;7.802;2022-10-31T09:46:07;17.90;99.90
7325;DHT22;3703;48.016;7.802;2022-10-31T09:49:16;17.90;99.90
7325;DHT22;3703;48.016;7.802;2022-10-31T09:52:22;18.00;99.90
7325;DHT22;3703;48.016;7.802;2022-10-31T09:55:16;18.00;99.90
7325;DHT22;3703;48.016;7.802;2022-10-31T09:58:09;18.20;99.90
7325;DHT22;3703;48.016;7.802;2022-10-31T10:01:03;18.30;99.90
7325;DHT22;3703;48.016;7.802;2022-10-31T10:03:55;18.50;99.90
7325;DHT22;3703;48.016;7.802;2022-10-31T10:06:48;18.70;99.90
7325;DHT22;3703;48.016;7.802;2022-10-31T10:09:38;18.90;99.90
7325;DHT22;3703;48.016;7.802;2022-10-31T10:12:40;19.00;99.90
7325;DHT22;3703;48.016;7.802;2022-10-31T10:15:44;19.00;99.90
7325;DHT22;3703;48.016;7.802;2022-10-31T10:18:55;19.00;99.90
7325;DHT22;3703;48.016;7.802;2022-10-31T10:21:53;18.90;99.90
7325;DHT22;3703;48.016;7.802;2022-10-31T10:24:59;18.70;99.90
7325;DHT22;3703;48.016;7.802;2022-10-31T10:28:03;18.20;99.90
7325;DHT22;3703;48.016;7.802;2022-10-31T10:30:57;18.20;99.90
7325;DHT22;3703;48.016;7.802;2022-10-31T10:33:58;18.00;99.90
7325;DHT22;3703;48.016;7.802;2022-10-31T10:36:52;17.80;99.90
7325;DHT22;3703;48.016;7.802;2022-10-31T10:39:46;17.50;99.90
7325;DHT22;3703;48.016;7.802;2022-10-31T10:42:38;17.50;99.90
7325;DHT22;3703;48.016;7.802;2022-10-31T10:45:44;17.30;99.90
7325;DHT22;3703;48.016;7.802;2022-10-31T10:48:58;17.20;99.90
7325;DHT22;3703;48.016;7.802;2022-10-31T10:51:57;16.90;99.90
7325;DHT22;3703;48.016;7.802;2022-10-31T10:54:58;16.60;99.90
7325;DHT22;3703;48.016;7.802;2022-10-31T10:57:56;16.50;99.90
7325;DHT22;3703;48.016;7.802;2022-10-31T11:00:45;16.60;99.90
7325;DHT22;3703;48.016;7.802;2022-10-31T11:03:35;16.50;99.90
7325;DHT22;3703;48.016;7.802;2022-10-31T11:06:23;16.20;99.90
7325;DHT22;3703;48.016;7.802;2022-10-31T11:09:14;16.20;99.90
7325;DHT22;3703;48.016;7.802;2022-10-31T11:12:08;16.50;99.90
7325;DHT22;3703;48.016;7.802;2022-10-31T11:15:07;16.70;99.90
7325;DHT22;3703;48.016;7.802;2022-10-31T11:18:05;16.80;99.90
7325;DHT22;3703;48.016;7.802;2022-10-31T11:20:55;17.00;99.90
7325;DHT22;3703;48.016;7.802;2022-10-31T11:23:43;17.30;99.90
7325;DHT22;3703;48.016;7.802;2022-10-31T11:26:31;17.60;99.90
7325;DHT22;3703;48.016;7.802;2022-10-31T11:29:22;17.90;99.90
7325;DHT22;3703;48.016;7.802;2022-10-31T11:32:20;18.30;99.90
7325;DHT22;3703;48.016;7.802;2022-10-31T11:35:11;18.70;99.90
7325;DHT22;3703;48.016;7.802;2022-10-31T11:38:06;19.00;99.90
7325;DHT22;3703;48.016;7.802;2022-10-31T11:40:55;20.00;99.90
7325;DHT22;3703;48.016;7.802;2022-10-31T11:43:51;20.90;99.90
7325;DHT22;3703;48.016;7.802;2022-10-31T11:46:43;21.20;99.90
7325;DHT22;3703;48.016;7.802;2022-10-31T11:49:36;21.20;99.90
7325;DHT22;3703;48.016;7.802;2022-10-31T11:52:28;21.20;99.90
7325;DHT22;3703;48.016;7.802;2022-10-31T11:55:29;21.80;99.90
7325;DHT22;3703;48.016;7.802;2022-10-31T11:58:23;22.00;99.90
7325;DHT22;3703;48.016;7.802;2022-10-31T12:01:24;22.30;99.90
7325;DHT22;3703;48.016;7.802;2022-10-31T12:04:13;22.90;99.90
7325;DHT22;3703;48.016;7.802;2022-10-31T12:07:04;23.50;99.90
7325;DHT22;3703;48.016;7.802;2022-10-31T12:09:51;24.20;99.90
7325;DHT22;3703;48.016;7.802;2022-10-31T12:12:52;24.90;99.90
7325;DHT22;3703;48.016;7.802;2022-10-31T12:15:52;25.40;99.90
7325;DHT22;3703;48.016;7.802;2022-10-31T12:18:56;25.80;99.90
7325;DHT22;3703;48.016;7.802;2022-10-31T12:21:59;26.30;99.90
7325;DHT22;3703;48.016;7.802;2022-10-31T12:25:08;26.40;99.90
7325;DHT22;3703;48.016;7.802;2022-10-31T12:28:20;26.60;99.90
7325;DHT22;3703;48.016;7.802;2022-10-31T12:31:43;26.40;99.90
7325;DHT22;3703;48.016;7.802;2022-10-31T12:35:10;26.40;99.90
7325;DHT22;3703;48.016;7.802;2022-10-31T12:38:33;26.10;99.90
7325;DHT22;3703;48.016;7.802;2022-10-31T12:41:46;26.50;99.90
7325;DHT22;3703;48.016;7.802;2022-10-31T12:44:52;26.80;99.90
7325;DHT22;3703;48.016;7.802;2022-10-31T12:48:03;27.10;99.90
7325;DHT22;3703;48.016;7.802;2022-10-31T12:51:13;27.40;99.90
7325;DHT22;3703;48.016;7.802;2022-10-31T12:54:16;27.50;99.90
7325;DHT22;3703;48.016;7.802;2022-10-31T12:57:20;27.80;99.90
7325;DHT22;3703;48.016;7.802;2022-10-31T13:00:12;27.90;99.90
7325;DHT22;3703;48.016;7.802;2022-10-31T13:03:20;27.70;99.90
7325;DHT22;3703;48.016;7.802;2022-10-31T13:06:16;27.50;99.90
7325;DHT22;3703;48.016;7.802;2022-10-31T13:09:10;27.30;99.90
7325;DHT22;3703;48.016;7.802;2022-10-31T13:12:04;26.90;99.90
7325;DHT22;3703;48.016;7.802;2022-10-31T13:14:57;26.10;99.90
7325;DHT22;3703;48.016;7.802;2022-10-31T13:17:48;25.50;99.90
7325;DHT22;3703;48.016;7.802;2022-10-31T13:20:41;25.00;99.90
7325;DHT22;3703;48.016;7.802;2022-10-31T13:23:32;24.60;99.90
7325;DHT22;3703;48.016;7.802;2022-10-31T13:26:32;24.20;99.90
7325;DHT22;3703;48.016;7.802;2022-10-31T13:29:27;23.80;99.90
7325;DHT22;3703;48.016;7.802;2022-10-31T13:32:16;23.80;99.90
7325;DHT22;3703;48.016;7.802;2022-10-31T13:35:07;23.90;99.90
7325;DHT22;3703;48.016;7.802;2022-10-31T13:38:09;23.80;99.90
7325;DHT22;3703;48.016;7.802;2022-10-31T13:41:09;24.00;99.90
7325;DHT22;3703;48.016;7.802;2022-10-31T13:44:06;24.10;99.90
7325;DHT22;3703;48.016;7.802;2022-10-31T13:46:59;24.40;99.90
7325;DHT22;3703;48.016;7.802;2022-10-31T13:49:47;24.40;99.90
7325;DHT22;3703;48.016;7.802;2022-10-31T13:52:35;24.10;99.90
7325;DHT22;3703;48.016;7.802;2022-10-31T13:55:37;23.70;99.90
7325;DHT22;3703;48.016;7.802;2022-10-31T13:58:28;23.30;99.90
7325;DHT22;3703;48.016;7.802;2022-10-31T14:01:19;22.90;99.90
7325;DHT22;3703;48.016;7.802;2022-10-31T14:04:15;22.30;99.90
7325;DHT22;3703;48.016;7.802;2022-10-31T14:07:08;22.40;99.90
7325;DHT22;3703;48.016;7.802;2022-10-31T14:10:00;22.30;99.90
7325;DHT22;3703;48.016;7.802;2022-10-31T14:12:50;22.00;99.90
7325;DHT22;3703;48.016;7.802;2022-10-31T14:15:38;22.00;99.90
7325;DHT22;3703;48.016;7.802;2022-10-31T14:18:32;22.00;99.90
7325;DHT22;3703;48.016;7.802;2022-10-31T14:21:28;22.00;99.90
7325;DHT22;3703;48.016;7.802;2022-10-31T14:24:35;22.10;99.90
7325;DHT22;3703;48.016;7.802;2022-10-31T14:27:45;22.40;99.90
7325;DHT22;3703;48.016;7.802;2022-10-31T14:30:33;22.50;99.90
7325;DHT22;3703;48.016;7.802;2022-10-31T14:33:23;22.70;99.90
7325;DHT22;3703;48.016;7.802;2022-10-31T14:36:21;22.90;99.90
7325;DHT22;3703;48.016;7.802;2022-10-31T14:39:17;22.90;99.90
7325;DHT22;3703;48.016;7.802;2022-10-31T14:42:22;22.80;99.90
7325;DHT22;3703;48.016;7.802;2022-10-31T14:45:27;22.90;99.90
7325;DHT22;3703;48.016;7.802;2022-10-31T14:48:34;22.80;99.90
7325;DHT22;3703;48.016;7.802;2022-10-31T14:51:34;22.70;99.90
7325;DHT22;3703;48.016;7.802;2022-10-31T14:54:27;22.50;99.90
7325;DHT22;3703;48.016;7.802;2022-10-31T14:57:21;22.40;99.90
7325;DHT22;3703;48.016;7.802;2022-10-31T15:00:16;22.30;99.90
7325;DHT22;3703;48.016;7.802;2022-10-31T15:03:12;22.20;99.90
7325;DHT22;3703;48.016;7.802;2022-10-31T15:06:05;22.00;99.90
7325;DHT22;3703;48.016;7.802;2022-10-31T15:08:58;21.70;99.90
7325;DHT22;3703;48.016;7.802;2022-10-31T15:11:46;21.60;99.90
7325;DHT22;3703;48.016;7.802;2022-10-31T15:14:33;21.60;99.90
7325;DHT22;3703;48.016;7.802;2022-10-31T15:17:21;21.40;99.90
7325;DHT22;3703;48.016;7.802;2022-10-31T15:20:11;21.20;99.90
7325;DHT22;3703;48.016;7.802;2022-10-31T15:23:00;21.10;99.90
7325;DHT22;3703;48.016;7.802;2022-10-31T15:25:49;20.80;99.90
7325;DHT22;3703;48.016;7.802;2022-10-31T15:28:37;20.60;99.90
7325;DHT22;3703;48.016;7.802;2022-10-31T15:31:25;20.60;99.90
7325;DHT22;3703;48.016;7.802;2022-10-31T15:34:18;20.40;99.90
7325;DHT22;3703;48.016;7.802;2022-10-31T15:37:10;20.30;99.90
7325;DHT22;3703;48.016;7.802;2022-10-31T15:40:07;20.20;99.90
7325;DHT22;3703;48.016;7.802;2022-10-31T15:43:04;20.10;99.90
7325;DHT22;3703;48.016;7.802;2022-10-31T15:46:00;20.10;99.90
7325;DHT22;3703;48.016;7.802;2022-10-31T15:48:49;20.00;99.90
7325;DHT22;3703;48.016;7.802;2022-10-31T15:51:37;19.90;99.90
7325;DHT22;3703;48.016;7.802;2022-10-31T15:54:25;19.70;99.90
7325;DHT22;3703;48.016;7.802;2022-10-31T15:57:13;19.50;99.90
7325;DHT22;3703;48.016;7.802;2022-10-31T16:00:03;19.50;99.90
7325;DHT22;3703;48.016;7.802;2022-10-31T16:03:03;19.40;99.90
7325;DHT22;3703;48.016;7.802;2022-10-31T16:05:54;19.20;99.90
7325;DHT22;3703;48.016;7.802;2022-10-31T16:08:45;19.10;99.90
7325;DHT22;3703;48.016;7.802;2022-10-31T16:11:36;19.10;99.90
7325;DHT22;3703;48.016;7.802;2022-10-31T16:14:27;18.90;99.90
7325;DHT22;3703;48.016;7.802;2022-10-31T16:17:19;18.80;99.90
7325;DHT22;3703;48.016;7.802;2022-10-31T16:20:19;18.70;99.90
7325;DHT22;3703;48.016;7.802;2022-10-31T16:23:12;18.70;99.90
7325;DHT22;3703;48.016;7.802;2022-10-31T16:26:06;18.50;99.90
7325;DHT22;3703;48.016;7.802;2022-10-31T16:28:55;18.40;99.90
7325;DHT22;3703;48.016;7.802;2022-10-31T16:31:44;18.30;99.90
7325;DHT22;3703;48.016;7.802;2022-10-31T16:34:33;18.20;99.90
7325;DHT22;3703;48.016;7.802;2022-10-31T16:37:21;18.10;99.90
7325;DHT22;3703;48.016;7.802;2022-10-31T16:40:10;18.10;99.90
7325;DHT22;3703;48.016;7.802;2022-10-31T16:43:00;18.10;99.90
7325;DHT22;3703;48.016;7.802;2022-10-31T16:45:49;17.80;99.90
7325;DHT22;3703;48.016;7.802;2022-10-31T16:48:38;18.40;99.90
7325;DHT22;3703;48.016;7.802;2022-10-31T16:51:27;17.80;99.90
7325;DHT22;3703;48.016;7.802;2022-10-31T16:54:14;17.80;99.90
7325;DHT22;3703;48.016;7.802;2022-10-31T16:57:03;17.70;99.90
7325;DHT22;3703;48.016;7.802;2022-10-31T16:59:52;17.60;99.90
7325;DHT22;3703;48.016;7.802;2022-10-31T17:02:41;17.60;99.90
7325;DHT22;3703;48.016;7.802;2022-10-31T17:05:29;17.60;99.90
7325;DHT22;3703;48.016;7.802;2022-10-31T17:08:19;17.80;99.90
7325;DHT22;3703;48.016;7.802;2022-10-31T17:11:11;17.70;99.90
7325;DHT22;3703;48.016;7.802;2022-10-31T17:14:01;17.60;99.90
7325;DHT22;3703;48.016;7.802;2022-10-31T17:16:50;17.30;99.90
7325;DHT22;3703;48.016;7.802;2022-10-31T17:19:38;16.90;99.90
7325;DHT22;3703;48.016;7.802;2022-10-31T17:22:25;16.80;99.90
7325;DHT22;3703;48.016;7.802;2022-10-31T17:25:17;16.70;99.90
7325;DHT22;3703;48.016;7.802;2022-10-31T17:28:06;16.50;99.90
7325;DHT22;3703;48.016;7.802;2022-10-31T17:30:54;16.40;99.90
7325;DHT22;3703;48.016;7.802;2022-10-31T17:33:44;16.30;99.90
7325;DHT22;3703;48.016;7.802;2022-10-31T17:36:32;16.00;99.90
7325;DHT22;3703;48.016;7.802;2022-10-31T17:39:20;16.00;99.90
7325;DHT22;3703;48.016;7.802;2022-10-31T17:42:10;15.90;99.90
7325;DHT22;3703;48.016;7.802;2022-10-31T17:44:57;15.90;99.90
7325;DHT22;3703;48.016;7.802;2022-10-31T17:47:46;15.90;99.90
7325;DHT22;3703;48.016;7.802;2022-10-31T17:50:34;15.80;99.90
7325;DHT22;3703;48.016;7.802;2022-10-31T17:53:22;15.80;99.90
7325;DHT22;3703;48.016;7.802;2022-10-31T17:56:10;15.60;99.90
7325;DHT22;3703;48.016;7.802;2022-10-31T17:58:59;15.50;99.90
7325;DHT22;3703;48.016;7.802;2022-10-31T18:01:46;15.50;99.90
7325;DHT22;3703;48.016;7.802;2022-10-31T18:04:34;15.40;99.90
7325;DHT22;3703;48.016;7.802;2022-10-31T18:07:22;15.30;99.90
7325;DHT22;3703;48.016;7.802;2022-10-31T18:10:09;15.20;99.90
7325;DHT22;3703;48.016;7.802;2022-10-31T18:12:57;15.30;99.90
7325;DHT22;3703;48.016;7.802;2022-10-31T18:15:46;15.30;99.90
7325;DHT22;3703;48.016;7.802;2022-10-31T18:18:33;15.30;99.90
7325;DHT22;3703;48.016;7.802;2022-10-31T18:21:21;15.20;99.90
7325;DHT22;3703;48.016;7.802;2022-10-31T18:24:09;15.30;99.90
7325;DHT22;3703;48.016;7.802;2022-10-31T18:26:56;15.30;99.90
7325;DHT22;3703;48.016;7.802;2022-10-31T18:29:44;15.30;99.90
7325;DHT22;3703;48.016;7.802;2022-10-31T18:32:33;15.40;99.90
7325;DHT22;3703;48.016;7.802;2022-10-31T18:35:21;15.40;99.90
7325;DHT22;3703;48.016;7.802;2022-10-31T18:38:09;15.40;99.90
7325;DHT22;3703;48.016;7.802;2022-10-31T18:40:56;15.50;99.90